Предлагаем Вашему вниманию английскую версию страницы: AUTOTAF.ME 35532 - aviation weather forecast Mugalzhar (Mugodzharskaya)

AUTOTAF 35532 - авиапрогноз Мугалжар (Мугоджарская)

Сегодня рассвет 02:16 UTC, восход солнца 02:48 UTC,
местный полдень 07:49 UTC, заход солнца 12:50 UTC,
наступление темноты 13:23 UTC.

Краткий прогноз 35532 на 9 часов

AUTOTAF.ME 35532 292000Z 2921/3006 15003MPS CAVOK

Детальный прогноз 35532 на 24 часа

AUTOTAF.ME 35532 292000Z 2921/3021 15003MPS 9999 BKN210 TX09/3009Z TN03/3000Z     
  BECMG 3007/3009 13007MPS

Подробный табличный прогноз

Время (UTC) miniAUTOTAF на 3 ч WX FZLVL
M AGL
ICE TURB Т
(°С)
Тd
(°С)
f(%) QNH
(гПа)
WIND/T
18 14003MPS 9999 BKN232 2400 5 -8 40 1035 ...
21 15003MPS 9999 BKN210 2400 4 -5 52 1034 ...
30.10.2020
00 15003MPS 9999 OVC200 2400 3 -7 48 1034 ...
03 13003MPS 9999 OVC178 2250 MOD FL190/FL200 MOD FL170/FL180 3 -7 50 1033 ...
06 13005MPS 9999 OVC178 2250 MOD FL190/FL200 MOD FL170/FL180 6 -7 40 1033 ...
09 13007MPS 9999 OVC170 2250 MOD FL190/FL200 MOD SFC/FL170 9 -9 26 1031 ...
12 13006MPS 9999 BKN180 2400 MOD FL170/FL180 9 -9 28 1030 ...
15 12007G13MPS 9999 BKN178 2400 MOD FL190/FL200 7 -8 35 1030 ...
18 13007G13MPS 9999 OVC180 2400 6 -8 36 1030 ...
21 13006G12MPS 9999 OVC178 2250 MOD FL190/FL200 5 -8 40 1029 ...
31.10.2020
00 12006G11MPS 9999 OVC177 2250 MOD FL190/FL200 5 -8 41 1028 ...
03 12006G12MPS 9999 OVC177 2250 4 -8 40 1028 ...
06 13007G12MPS 9999 OVC170 2250 MOD FL190/FL200 MOD FL170/FL180 8 -9 30 1027 ...
09 14008MPS 9999 BKN177 2250 MOD FL190/FL200 MOD SFC/FL30 12 -9 24 1025 ...
12 13006G11MPS 9999 SCT177 2400 MOD FL190/FL200 MOD SFC/FL30 11 -9 25 1024 ...
15 12007G13MPS 9999 OVC260 2400 9 -9 29 1024 ...


Широта 48.6°, долгота 58.5°, высота 398 м абс.
Средняя высота рельефа местности 393 м абс.
Прогнозы обновляются четыре раза в сутки: в 02, 08, 14, 20 ч всемирного времени.


Выбрать прогноз по другой модели Мугалжар (Мугоджарская)
Онлайн-сводка гроз по Мугалжар (Мугоджарская) (для РФ и ближнего зарубежья)
Карта фактических гроз в окрестностях Мугалжар (Мугоджарская)
Динамические прогностические карты (ventusky.com)
Прогностическая карта высоты нижней границы облаков по Мугалжар (Мугоджарская) (windy.com)
Выбрать другой город

Прогноз предназначен для личного научно-познавательного использования частными лицами
и не предназначен для принятия важных решений и выполнения реальных полётов воздушных судов

При копировании или ином использовании любых материалов данного сайта ссылка на © meteocenter.asia обязательна.

1.18/1.6